PWSweather.com
Personal Weather Stations
Station Observations
REUBENS
Camas Prairie, Reubens, ID

Camas PrairieReubens, ID

Lat: 46.35417, Lon: -116.53167

Elevation: 3480

Station Type: Davis VantagePro 2

http://www.theobrienranch.com/wx/wx.htm

Latest ConditionsUpdated 6:30:01 PM PDT Friday, Jul 3, 2015
Currently Today's Max Today's Min Today's Average
Temperature 89.3°F31.8°C 93.4°F34.1°C 58.6°F14.8°C 78.3°F25.7°C
Dew Point 49.9°F9.9°C 55.5°F13.1°C 44.7°F7.1°C 48.6°F9.2°C
Winds 5.1 mph NE8.2 kmh NE 6.7 mph NNE10.8 kmh NNE - 2.2 mph 3.5 kmh
Wind Gusts 8.0 mph12.9 kmh 13.0 mph20.9 kmh - -
Humidity 26% 64% 20% 39%
Pressure 29.65 in1004.1 mb 29.79 in1008.8 mb 29.64 in1003.7 mb -
Hour Temp Dew Point Humidity Winds Wind Gusts Pressure Precip Precip Rate Daily Precip Total
06:30 PM 89.3°F31.8°C 49.9°F9.9°C 26% 5.1 mph NE8.2 kmh NE 8.0 mph12.9 kmh 29.65 in1004.1 mb - 0.00 in0.0 mm 0.00 in0.0 mm
06:00 PM 92.5°F33.6°C 48.1°F8.9°C 22% 0.9 mph NNW1.4 kmh NNW 4.0 mph6.4 kmh 29.64 in1003.7 mb - 0.00 in0.0 mm 0.00 in0.0 mm
05:30 PM 92.0°F33.3°C 48.9°F9.4°C 23% Calm Calm 1.0 mph1.6 kmh 29.67 in1004.7 mb - 0.00 in0.0 mm 0.00 in0.0 mm
05:00 PM 93.3°F34.1°C 50.0°F10.0°C 23% 3.3 mph N5.3 kmh N 6.0 mph9.7 kmh 29.68 in1005.1 mb - 0.00 in0.0 mm 0.00 in0.0 mm
04:30 PM 92.7°F33.7°C 48.3°F9.1°C 22% 5.0 mph NW8.0 kmh NW 7.0 mph11.3 kmh 29.70 in1005.8 mb - 0.00 in0.0 mm 0.00 in0.0 mm
04:00 PM 93.4°F34.1°C 48.9°F9.4°C 22% 6.7 mph NNE10.8 kmh NNE 10.0 mph16.1 kmh 29.71 in1006.1 mb - 0.00 in0.0 mm 0.00 in0.0 mm
03:30 PM 92.4°F33.6°C 46.8°F8.2°C 21% 1.0 mph WNW1.6 kmh WNW 13.0 mph20.9 kmh 29.72 in1006.4 mb - 0.00 in0.0 mm 0.00 in0.0 mm
03:00 PM 92.8°F33.8°C 45.9°F7.7°C 20% 4.7 mph N7.6 kmh N 6.0 mph9.7 kmh 29.72 in1006.4 mb - 0.00 in0.0 mm 0.00 in0.0 mm
02:30 PM 93.1°F33.9°C 49.8°F9.9°C 23% 2.7 mph N4.3 kmh N 5.0 mph8.0 kmh 29.73 in1006.8 mb - 0.00 in0.0 mm 0.00 in0.0 mm
02:00 PM 91.3°F32.9°C 48.3°F9.1°C 23% 3.2 mph NNE5.1 kmh NNE 10.0 mph16.1 kmh 29.75 in1007.5 mb - 0.00 in0.0 mm 0.00 in0.0 mm
01:30 PM 92.4°F33.6°C 51.5°F10.8°C 25% 0.3 mph NW0.5 kmh NW 3.0 mph4.8 kmh 29.75 in1007.5 mb - 0.00 in0.0 mm 0.00 in0.0 mm
01:00 PM 92.9°F33.8°C 53.0°F11.7°C 26% 3.5 mph NNE5.6 kmh NNE 7.0 mph11.3 kmh 29.76 in1007.8 mb - 0.00 in0.0 mm 0.00 in0.0 mm
12:30 PM 89.1°F31.7°C 50.8°F10.4°C 27% 0.7 mph NNW1.1 kmh NNW 3.0 mph4.8 kmh 29.77 in1008.1 mb - 0.00 in0.0 mm 0.00 in0.0 mm
12:00 PM 90.8°F32.7°C 51.2°F10.7°C 26% 0.2 mph NNW0.3 kmh NNW 1.0 mph1.6 kmh 29.77 in1008.1 mb - 0.00 in0.0 mm 0.00 in0.0 mm
11:30 AM 89.7°F32.1°C 51.3°F10.7°C 27% 3.0 mph N4.8 kmh N 7.0 mph11.3 kmh 29.78 in1008.5 mb - 0.00 in0.0 mm 0.00 in0.0 mm
11:00 AM 88.8°F31.6°C 51.5°F10.8°C 28% 3.2 mph N5.1 kmh N 6.0 mph9.7 kmh 29.79 in1008.8 mb - 0.00 in0.0 mm 0.00 in0.0 mm
10:30 AM 87.5°F30.8°C 51.3°F10.7°C 29% 1.0 mph N1.6 kmh N 4.0 mph6.4 kmh 29.79 in1008.8 mb - 0.00 in0.0 mm 0.00 in0.0 mm
10:00 AM 86.6°F30.3°C 50.6°F10.3°C 29% 3.6 mph NNW5.8 kmh NNW 7.0 mph11.3 kmh 29.79 in1008.8 mb - 0.00 in0.0 mm 0.00 in0.0 mm
09:30 AM 85.8°F29.9°C 50.8°F10.4°C 30% 1.5 mph NNW2.4 kmh NNW 5.0 mph8.0 kmh 29.78 in1008.5 mb - 0.00 in0.0 mm 0.00 in0.0 mm
09:00 AM 85.1°F29.5°C 48.3°F9.1°C 28% 2.5 mph NNW4.0 kmh NNW 8.0 mph12.9 kmh 29.78 in1008.5 mb - 0.00 in0.0 mm 0.00 in0.0 mm
08:30 AM 83.8°F28.8°C 50.8°F10.4°C 32% Calm Calm -- 29.75 in1007.5 mb - 0.00 in0.0 mm 0.00 in0.0 mm
08:00 AM 78.7°F25.9°C 55.5°F13.1°C 45% Calm Calm -- 29.76 in1007.8 mb - 0.00 in0.0 mm 0.00 in0.0 mm
07:30 AM 73.8°F23.2°C 54.0°F12.2°C 50% Calm Calm -- 29.77 in1008.1 mb - 0.00 in0.0 mm 0.00 in0.0 mm
07:00 AM 67.0°F19.4°C 54.5°F12.5°C 64% Calm Calm -- 29.79 in1008.8 mb - 0.00 in0.0 mm 0.00 in0.0 mm
06:30 AM 64.7°F18.2°C 47.7°F8.7°C 54% Calm Calm 1.0 mph1.6 kmh 29.78 in1008.5 mb - 0.00 in0.0 mm 0.00 in0.0 mm
06:00 AM 63.5°F17.5°C 45.5°F7.5°C 52% Calm Calm -- 29.78 in1008.5 mb - 0.00 in0.0 mm 0.00 in0.0 mm
05:30 AM 59.0°F15.0°C 45.6°F7.6°C 61% Calm Calm 1.0 mph1.6 kmh 29.78 in1008.5 mb - 0.00 in0.0 mm 0.00 in0.0 mm
05:00 AM 58.6°F14.8°C 44.7°F7.1°C 60% 2.1 mph WNW3.4 kmh WNW 3.0 mph4.8 kmh 29.77 in1008.1 mb - 0.00 in0.0 mm 0.00 in0.0 mm
04:30 AM 59.0°F15.0°C 45.6°F7.6°C 61% 3.1 mph WNW5.0 kmh WNW 4.0 mph6.4 kmh 29.77 in1008.1 mb - 0.00 in0.0 mm 0.00 in0.0 mm
04:00 AM 61.2°F16.2°C 45.3°F7.4°C 56% 4.3 mph WNW6.9 kmh WNW 5.0 mph8.0 kmh 29.76 in1007.8 mb - 0.00 in0.0 mm 0.00 in0.0 mm
03:30 AM 59.0°F15.0°C 45.1°F7.3°C 60% 2.4 mph WNW3.9 kmh WNW 3.0 mph4.8 kmh 29.76 in1007.8 mb - 0.00 in0.0 mm 0.00 in0.0 mm
03:00 AM 62.6°F17.0°C 45.3°F7.4°C 53% 2.9 mph WNW4.7 kmh WNW 3.0 mph4.8 kmh 29.75 in1007.5 mb - 0.00 in0.0 mm 0.00 in0.0 mm
02:30 AM 62.3°F16.8°C 45.5°F7.5°C 54% 3.5 mph WNW5.6 kmh WNW 4.0 mph6.4 kmh 29.76 in1007.8 mb - 0.00 in0.0 mm 0.00 in0.0 mm
02:00 AM 61.5°F16.4°C 44.7°F7.1°C 54% Calm Calm -- 29.76 in1007.8 mb - 0.00 in0.0 mm 0.00 in0.0 mm
01:30 AM 62.3°F16.8°C 45.0°F7.2°C 53% 3.2 mph WNW5.1 kmh WNW 4.0 mph6.4 kmh 29.76 in1007.8 mb - 0.00 in0.0 mm 0.00 in0.0 mm
01:00 AM 62.8°F17.1°C 44.9°F7.2°C 52% 3.7 mph WNW6.0 kmh WNW 4.0 mph6.4 kmh 29.76 in1007.8 mb - 0.00 in0.0 mm 0.00 in0.0 mm
12:30 AM 61.6°F16.4°C 46.2°F7.9°C 57% 2.9 mph WNW4.7 kmh WNW 4.0 mph6.4 kmh 29.77 in1008.1 mb - 0.00 in0.0 mm 0.00 in0.0 mm
12:00 AM 62.7°F17.1°C 46.3°F7.9°C 55% 3.5 mph WNW5.6 kmh WNW 4.0 mph6.4 kmh 29.78 in1008.5 mb - 0.00 in0.0 mm 0.00 in0.0 mm